sensor_id;sensor_type;location;lat;lon;timestamp;pressure;altitude;pressure_sealevel;temperature;humidity
62634;BME280;48704;50.534;6.442;2023-07-02T00:00:07;94896.47;;;11.97;100.00
62634;BME280;48704;50.534;6.442;2023-07-02T00:02:33;94891.34;;;11.90;100.00
62634;BME280;48704;50.534;6.442;2023-07-02T00:04:58;94897.84;;;11.65;100.00
62634;BME280;48704;50.534;6.442;2023-07-02T00:07:23;94888.25;;;11.71;100.00
62634;BME280;48704;50.534;6.442;2023-07-02T00:09:51;94888.97;;;11.61;100.00
62634;BME280;48704;50.534;6.442;2023-07-02T00:12:16;94886.16;;;11.61;100.00
62634;BME280;48704;50.534;6.442;2023-07-02T00:14:41;94893.78;;;11.66;100.00
62634;BME280;48704;50.534;6.442;2023-07-02T00:17:07;94892.28;;;11.65;100.00
62634;BME280;48704;50.534;6.442;2023-07-02T00:19:32;94886.91;;;11.56;100.00
62634;BME280;48704;50.534;6.442;2023-07-02T00:21:58;94882.84;;;11.57;100.00
62634;BME280;48704;50.534;6.442;2023-07-02T00:24:23;94881.81;;;11.54;100.00
62634;BME280;48704;50.534;6.442;2023-07-02T00:26:48;94889.16;;;11.52;100.00
62634;BME280;48704;50.534;6.442;2023-07-02T00:29:14;94890.91;;;11.38;100.00
62634;BME280;48704;50.534;6.442;2023-07-02T00:31:39;94882.31;;;11.47;100.00
62634;BME280;48704;50.534;6.442;2023-07-02T00:34:04;94873.19;;;11.47;100.00
62634;BME280;48704;50.534;6.442;2023-07-02T00:36:31;94873.34;;;11.26;100.00
62634;BME280;48704;50.534;6.442;2023-07-02T00:38:56;94874.34;;;11.23;100.00
62634;BME280;48704;50.534;6.442;2023-07-02T00:41:22;94869.59;;;11.35;100.00
62634;BME280;48704;50.534;6.442;2023-07-02T00:43:47;94877.69;;;11.33;100.00
62634;BME280;48704;50.534;6.442;2023-07-02T00:46:15;94866.00;;;11.29;100.00
62634;BME280;48704;50.534;6.442;2023-07-02T00:48:46;94866.75;;;11.29;100.00
62634;BME280;48704;50.534;6.442;2023-07-02T00:51:15;94873.34;;;11.26;100.00
62634;BME280;48704;50.534;6.442;2023-07-02T00:53:40;94869.47;;;11.13;100.00
62634;BME280;48704;50.534;6.442;2023-07-02T00:56:06;94869.75;;;11.20;100.00
62634;BME280;48704;50.534;6.442;2023-07-02T00:58:33;94878.09;;;11.15;100.00
62634;BME280;48704;50.534;6.442;2023-07-02T01:01:01;94881.13;;;11.11;100.00
62634;BME280;48704;50.534;6.442;2023-07-02T01:03:27;94889.50;;;11.11;100.00
62634;BME280;48704;50.534;6.442;2023-07-02T01:05:54;94880.09;;;11.09;100.00
62634;BME280;48704;50.534;6.442;2023-07-02T01:08:19;94885.44;;;11.12;100.00
62634;BME280;48704;50.534;6.442;2023-07-02T01:10:44;94885.97;;;11.16;100.00
62634;BME280;48704;50.534;6.442;2023-07-02T01:13:15;94894.59;;;11.18;100.00
62634;BME280;48704;50.534;6.442;2023-07-02T01:15:42;94883.94;;;11.11;100.00
62634;BME280;48704;50.534;6.442;2023-07-02T01:18:10;94888.25;;;11.18;100.00
62634;BME280;48704;50.534;6.442;2023-07-02T01:20:37;94891.50;;;11.05;100.00
62634;BME280;48704;50.534;6.442;2023-07-02T01:23:03;94891.03;;;11.12;100.00
62634;BME280;48704;50.534;6.442;2023-07-02T01:25:29;94886.72;;;11.11;100.00
62634;BME280;48704;50.534;6.442;2023-07-02T01:27:55;94892.25;;;11.05;100.00
62634;BME280;48704;50.534;6.442;2023-07-02T01:30:21;94898.31;;;11.04;100.00
62634;BME280;48704;50.534;6.442;2023-07-02T01:32:46;94886.44;;;11.09;100.00
62634;BME280;48704;50.534;6.442;2023-07-02T01:35:12;94891.84;;;11.24;100.00
62634;BME280;48704;50.534;6.442;2023-07-02T01:37:37;94892.31;;;11.22;100.00
62634;BME280;48704;50.534;6.442;2023-07-02T01:40:03;94884.19;;;11.19;100.00
62634;BME280;48704;50.534;6.442;2023-07-02T01:42:33;94888.59;;;11.36;100.00
62634;BME280;48704;50.534;6.442;2023-07-02T01:44:58;94885.56;;;11.34;100.00
62634;BME280;48704;50.534;6.442;2023-07-02T01:47:23;94891.16;;;11.40;100.00
62634;BME280;48704;50.534;6.442;2023-07-02T01:49:49;94895.25;;;11.45;100.00
62634;BME280;48704;50.534;6.442;2023-07-02T01:52:14;94902.63;;;11.48;100.00
62634;BME280;48704;50.534;6.442;2023-07-02T01:54:41;94899.31;;;11.44;100.00
62634;BME280;48704;50.534;6.442;2023-07-02T01:57:06;94897.78;;;11.43;100.00
62634;BME280;48704;50.534;6.442;2023-07-02T01:59:31;94898.31;;;11.47;100.00
62634;BME280;48704;50.534;6.442;2023-07-02T02:01:56;94893.19;;;11.39;100.00
62634;BME280;48704;50.534;6.442;2023-07-02T02:04:22;94897.31;;;11.50;100.00
62634;BME280;48704;50.534;6.442;2023-07-02T02:06:47;94894.47;;;11.44;100.00
62634;BME280;48704;50.534;6.442;2023-07-02T02:09:12;94898.81;;;11.45;100.00
62634;BME280;48704;50.534;6.442;2023-07-02T02:11:40;94903.13;;;11.52;100.00
62634;BME280;48704;50.534;6.442;2023-07-02T02:14:06;94896.25;;;11.42;100.00
62634;BME280;48704;50.534;6.442;2023-07-02T02:16:31;94899.31;;;11.44;100.00
62634;BME280;48704;50.534;6.442;2023-07-02T02:18:59;94904.88;;;11.44;100.00
62634;BME280;48704;50.534;6.442;2023-07-02T02:21:24;94904.41;;;11.51;100.00
62634;BME280;48704;50.534;6.442;2023-07-02T02:23:49;94900.31;;;11.46;100.00
62634;BME280;48704;50.534;6.442;2023-07-02T02:26:14;94906.06;;;11.31;100.00
62634;BME280;48704;50.534;6.442;2023-07-02T02:28:42;94906.41;;;11.45;100.00
62634;BME280;48704;50.534;6.442;2023-07-02T02:31:07;94908.16;;;11.42;100.00
62634;BME280;48704;50.534;6.442;2023-07-02T02:33:32;94916.28;;;11.40;100.00
62634;BME280;48704;50.534;6.442;2023-07-02T02:35:58;94908.41;;;11.38;100.00
62634;BME280;48704;50.534;6.442;2023-07-02T02:38:23;94914.25;;;11.41;100.00
62634;BME280;48704;50.534;6.442;2023-07-02T02:40:48;94908.41;;;11.38;100.00
62634;BME280;48704;50.534;6.442;2023-07-02T02:43:14;94913.94;;;11.33;100.00
62634;BME280;48704;50.534;6.442;2023-07-02T02:45:42;94916.03;;;11.44;100.00
62634;BME280;48704;50.534;6.442;2023-07-02T02:48:07;94915.78;;;11.42;100.00
62634;BME280;48704;50.534;6.442;2023-07-02T02:50:32;94915.75;;;11.36;100.00
62634;BME280;48704;50.534;6.442;2023-07-02T02:52:57;94905.88;;;11.41;100.00
62634;BME280;48704;50.534;6.442;2023-07-02T02:55:23;94899.78;;;11.36;100.00
62634;BME280;48704;50.534;6.442;2023-07-02T02:57:48;94910.19;;;11.42;100.00
62634;BME280;48704;50.534;6.442;2023-07-02T03:00:14;94909.66;;;11.37;100.00
62634;BME280;48704;50.534;6.442;2023-07-02T03:02:39;94918.03;;;11.37;100.00
62634;BME280;48704;50.534;6.442;2023-07-02T03:05:05;94922.16;;;11.48;100.00
62634;BME280;48704;50.534;6.442;2023-07-02T03:07:32;94915.03;;;11.47;100.00
62634;BME280;48704;50.534;6.442;2023-07-02T03:09:57;94921.63;;;11.44;100.00
62634;BME280;48704;50.534;6.442;2023-07-02T03:12:23;94911.91;;;11.33;100.00
62634;BME280;48704;50.534;6.442;2023-07-02T03:14:48;94915.28;;;11.43;100.00
62634;BME280;48704;50.534;6.442;2023-07-02T03:17:18;94915.28;;;11.43;100.00
62634;BME280;48704;50.534;6.442;2023-07-02T03:19:44;94923.59;;;11.37;100.00
62634;BME280;48704;50.534;6.442;2023-07-02T03:22:09;94927.59;;;11.25;100.00
62634;BME280;48704;50.534;6.442;2023-07-02T03:24:34;94922.09;;;11.36;100.00
62634;BME280;48704;50.534;6.442;2023-07-02T03:27:00;94916.50;;;11.36;100.00
62634;BME280;48704;50.534;6.442;2023-07-02T03:29:25;94919.75;;;11.29;100.00
62634;BME280;48704;50.534;6.442;2023-07-02T03:31:50;94923.06;;;11.33;100.00
62634;BME280;48704;50.534;6.442;2023-07-02T03:34:15;94927.66;;;11.36;100.00
62634;BME280;48704;50.534;6.442;2023-07-02T03:36:41;94925.16;;;11.44;100.00
62634;BME280;48704;50.534;6.442;2023-07-02T03:39:06;94933.78;;;11.41;100.00
62634;BME280;48704;50.534;6.442;2023-07-02T03:41:31;94926.72;;;11.51;100.00
62634;BME280;48704;50.534;6.442;2023-07-02T03:43:57;94932.81;;;11.55;100.00
62634;BME280;48704;50.534;6.442;2023-07-02T03:46:22;94938.38;;;11.55;100.00
62634;BME280;48704;50.534;6.442;2023-07-02T03:48:47;94933.81;;;11.52;100.00
62634;BME280;48704;50.534;6.442;2023-07-02T03:51:13;94940.56;;;11.77;100.00
62634;BME280;48704;50.534;6.442;2023-07-02T03:53:40;94939.59;;;11.85;100.00
62634;BME280;48704;50.534;6.442;2023-07-02T03:56:05;94942.13;;;11.83;100.00
62634;BME280;48704;50.534;6.442;2023-07-02T03:58:30;94948.09;;;11.65;100.00
62634;BME280;48704;50.534;6.442;2023-07-02T04:00:55;94954.28;;;11.80;100.00
62634;BME280;48704;50.534;6.442;2023-07-02T04:03:21;94958.63;;;11.87;100.00
62634;BME280;48704;50.534;6.442;2023-07-02T04:05:46;94952.19;;;11.75;100.00
62634;BME280;48704;50.534;6.442;2023-07-02T04:08:11;94957.84;;;11.86;100.00
62634;BME280;48704;50.534;6.442;2023-07-02T04:10:37;94958.63;;;11.92;100.00
62634;BME280;48704;50.534;6.442;2023-07-02T04:13:02;94966.72;;;11.90;100.00
62634;BME280;48704;50.534;6.442;2023-07-02T04:15:27;94961.69;;;11.94;100.00
62634;BME280;48704;50.534;6.442;2023-07-02T04:17:53;94963.97;;;11.96;100.00
62634;BME280;48704;50.534;6.442;2023-07-02T04:20:19;94961.47;;;12.03;100.00
62634;BME280;48704;50.534;6.442;2023-07-02T04:22:45;94965.25;;;12.00;100.00
62634;BME280;48704;50.534;6.442;2023-07-02T04:25:14;94977.94;;;12.01;100.00
62634;BME280;48704;50.534;6.442;2023-07-02T04:27:43;94967.25;;;11.94;100.00
62634;BME280;48704;50.534;6.442;2023-07-02T04:30:09;94969.34;;;12.05;100.00
62634;BME280;48704;50.534;6.442;2023-07-02T04:32:36;94968.84;;;12.07;100.00
62634;BME280;48704;50.534;6.442;2023-07-02T04:35:02;94979.53;;;12.14;100.00
62634;BME280;48704;50.534;6.442;2023-07-02T04:37:27;94971.63;;;12.07;100.00
62634;BME280;48704;50.534;6.442;2023-07-02T04:39:54;94978.53;;;12.17;100.00
62634;BME280;48704;50.534;6.442;2023-07-02T04:42:19;94984.41;;;12.24;100.00
62634;BME280;48704;50.534;6.442;2023-07-02T04:44:44;94985.94;;;12.36;100.00
62634;BME280;48704;50.534;6.442;2023-07-02T04:47:10;94973.19;;;12.19;100.00
62634;BME280;48704;50.534;6.442;2023-07-02T04:49:35;94987.13;;;12.08;100.00
62634;BME280;48704;50.534;6.442;2023-07-02T04:52:00;94986.38;;;12.13;100.00
62634;BME280;48704;50.534;6.442;2023-07-02T04:54:25;94984.63;;;12.15;100.00
62634;BME280;48704;50.534;6.442;2023-07-02T04:56:51;94986.81;;;11.94;100.00
62634;BME280;48704;50.534;6.442;2023-07-02T04:59:16;94988.91;;;12.11;100.00
62634;BME280;48704;50.534;6.442;2023-07-02T05:01:42;94988.16;;;12.16;100.00
62634;BME280;48704;50.534;6.442;2023-07-02T05:04:10;94990.50;;;12.34;100.00
62634;BME280;48704;50.534;6.442;2023-07-02T05:06:36;94993.75;;;12.16;100.00
62634;BME280;48704;50.534;6.442;2023-07-02T05:09:02;94997.38;;;12.38;100.00
62634;BME280;48704;50.534;6.442;2023-07-02T05:11:27;94999.84;;;12.14;100.00
62634;BME280;48704;50.534;6.442;2023-07-02T05:13:52;94991.00;;;12.38;100.00
62634;BME280;48704;50.534;6.442;2023-07-02T05:16:17;94991.03;;;12.49;100.00
62634;BME280;48704;50.534;6.442;2023-07-02T05:18:43;94997.34;;;12.33;100.00
62634;BME280;48704;50.534;6.442;2023-07-02T05:21:08;94996.38;;;12.53;100.00
62634;BME280;48704;50.534;6.442;2023-07-02T05:23:33;94995.38;;;12.50;100.00
62634;BME280;48704;50.534;6.442;2023-07-02T05:25:58;95002.19;;;12.38;100.00
62634;BME280;48704;50.534;6.442;2023-07-02T05:28:25;95001.91;;;12.25;100.00
62634;BME280;48704;50.534;6.442;2023-07-02T05:30:50;95006.50;;;12.33;100.00
62634;BME280;48704;50.534;6.442;2023-07-02T05:33:15;95000.66;;;12.37;100.00
62634;BME280;48704;50.534;6.442;2023-07-02T05:35:40;94998.44;;;12.52;100.00
62634;BME280;48704;50.534;6.442;2023-07-02T05:38:06;95004.50;;;12.51;100.00
62634;BME280;48704;50.534;6.442;2023-07-02T05:40:31;95005.56;;;12.59;100.00
62634;BME280;48704;50.534;6.442;2023-07-02T05:42:56;95015.44;;;12.54;100.00
62634;BME280;48704;50.534;6.442;2023-07-02T05:45:22;95010.91;;;12.73;100.00
62634;BME280;48704;50.534;6.442;2023-07-02T05:47:48;95013.44;;;12.71;100.00
62634;BME280;48704;50.534;6.442;2023-07-02T05:50:14;95019.81;;;12.78;100.00
62634;BME280;48704;50.534;6.442;2023-07-02T05:52:39;95022.59;;;12.61;100.00
62634;BME280;48704;50.534;6.442;2023-07-02T05:55:05;95026.38;;;12.69;100.00
62634;BME280;48704;50.534;6.442;2023-07-02T05:57:32;95024.63;;;12.83;100.00
62634;BME280;48704;50.534;6.442;2023-07-02T05:59:57;95028.97;;;12.84;100.00
62634;BME280;48704;50.534;6.442;2023-07-02T06:02:23;95026.44;;;12.86;100.00
62634;BME280;48704;50.534;6.442;2023-07-02T06:04:48;95032.75;;;12.69;100.00
62634;BME280;48704;50.534;6.442;2023-07-02T06:07:13;95037.28;;;12.50;100.00
62634;BME280;48704;50.534;6.442;2023-07-02T06:09:38;95038.34;;;12.69;100.00
62634;BME280;48704;50.534;6.442;2023-07-02T06:12:04;95032.25;;;12.77;100.00
62634;BME280;48704;50.534;6.442;2023-07-02T06:14:29;95040.63;;;12.71;100.00
62634;BME280;48704;50.534;6.442;2023-07-02T06:16:54;95036.84;;;13.07;100.00
62634;BME280;48704;50.534;6.442;2023-07-02T06:19:22;95040.69;;;12.93;100.00
62634;BME280;48704;50.534;6.442;2023-07-02T06:21:47;95043.44;;;12.77;100.00
62634;BME280;48704;50.534;6.442;2023-07-02T06:24:13;95053.06;;;12.64;100.00
62634;BME280;48704;50.534;6.442;2023-07-02T06:26:38;95062.22;;;12.65;100.00
62634;BME280;48704;50.534;6.442;2023-07-02T06:29:03;95059.16;;;12.68;100.00
62634;BME280;48704;50.534;6.442;2023-07-02T06:31:28;95063.47;;;12.64;100.00
62634;BME280;48704;50.534;6.442;2023-07-02T06:33:54;95064.00;;;12.57;100.00
62634;BME280;48704;50.534;6.442;2023-07-02T06:36:19;95069.81;;;12.64;100.00
62634;BME280;48704;50.534;6.442;2023-07-02T06:38:44;95065.22;;;12.45;100.00
62634;BME280;48704;50.534;6.442;2023-07-02T06:41:10;95067.53;;;12.63;100.00
62634;BME280;48704;50.534;6.442;2023-07-02T06:43:35;95067.03;;;12.59;100.00
62634;BME280;48704;50.534;6.442;2023-07-02T06:46:01;95067.53;;;12.57;100.00
62634;BME280;48704;50.534;6.442;2023-07-02T06:48:26;95079.84;;;13.10;100.00
62634;BME280;48704;50.534;6.442;2023-07-02T06:50:51;95077.06;;;13.16;100.00
62634;BME280;48704;50.534;6.442;2023-07-02T06:53:16;95086.25;;;13.27;100.00
62634;BME280;48704;50.534;6.442;2023-07-02T06:55:42;95083.47;;;13.33;100.00
62634;BME280;48704;50.534;6.442;2023-07-02T06:58:08;95080.38;;;13.42;100.00
62634;BME280;48704;50.534;6.442;2023-07-02T07:00:33;95081.66;;;13.24;100.00
62634;BME280;48704;50.534;6.442;2023-07-02T07:03:03;95084.47;;;13.35;100.00
62634;BME280;48704;50.534;6.442;2023-07-02T07:05:30;95092.59;;;13.73;100.00
62634;BME280;48704;50.534;6.442;2023-07-02T07:07:56;95089.28;;;13.52;100.00
62634;BME280;48704;50.534;6.442;2023-07-02T07:10:21;95100.47;;;13.41;100.00
62634;BME280;48704;50.534;6.442;2023-07-02T07:12:46;95094.38;;;13.53;100.00
62634;BME280;48704;50.534;6.442;2023-07-02T07:15:12;95093.38;;;13.51;100.00
62634;BME280;48704;50.534;6.442;2023-07-02T07:17:37;95093.88;;;13.55;100.00
62634;BME280;48704;50.534;6.442;2023-07-02T07:20:02;95085.19;;;13.75;100.00
62634;BME280;48704;50.534;6.442;2023-07-02T07:22:30;95089.38;;;14.37;100.00
62634;BME280;48704;50.534;6.442;2023-07-02T07:24:55;95092.47;;;14.34;100.00
62634;BME280;48704;50.534;6.442;2023-07-02T07:27:21;95090.91;;;14.38;100.00
62634;BME280;48704;50.534;6.442;2023-07-02T07:29:46;95088.56;;;14.59;100.00
62634;BME280;48704;50.534;6.442;2023-07-02T07:32:11;95090.53;;;14.76;100.00
62634;BME280;48704;50.534;6.442;2023-07-02T07:34:36;95091.06;;;14.68;100.00
62634;BME280;48704;50.534;6.442;2023-07-02T07:37:02;95090.19;;;14.27;100.00
62634;BME280;48704;50.534;6.442;2023-07-02T07:39:27;95084.66;;;14.79;100.00
62634;BME280;48704;50.534;6.442;2023-07-02T07:41:52;95097.88;;;14.84;100.00
62634;BME280;48704;50.534;6.442;2023-07-02T07:44:18;95091.91;;;14.99;100.00
62634;BME280;48704;50.534;6.442;2023-07-02T07:46:43;95093.63;;;14.66;100.00
62634;BME280;48704;50.534;6.442;2023-07-02T07:49:08;95095.38;;;14.75;100.00
62634;BME280;48704;50.534;6.442;2023-07-02T07:51:34;95092.63;;;14.58;100.00
62634;BME280;48704;50.534;6.442;2023-07-02T07:54:01;95097.56;;;14.35;100.00
62634;BME280;48704;50.534;6.442;2023-07-02T07:56:26;95100.88;;;14.45;100.00
62634;BME280;48704;50.534;6.442;2023-07-02T07:58:51;95095.25;;;14.45;100.00
62634;BME280;48704;50.534;6.442;2023-07-02T08:01:16;95091.34;;;14.59;100.00
62634;BME280;48704;50.534;6.442;2023-07-02T08:03:42;95096.22;;;14.53;100.00
62634;BME280;48704;50.534;6.442;2023-07-02T08:06:07;95102.31;;;14.57;100.00
62634;BME280;48704;50.534;6.442;2023-07-02T08:08:32;95095.03;;;14.90;100.00
62634;BME280;48704;50.534;6.442;2023-07-02T08:10:57;95092.66;;;15.05;100.00
62634;BME280;48704;50.534;6.442;2023-07-02T08:13:23;95101.22;;;14.83;100.00
62634;BME280;48704;50.534;6.442;2023-07-02T08:15:48;95093.59;;;14.78;100.00
62634;BME280;48704;50.534;6.442;2023-07-02T08:18:13;95104.72;;;15.30;100.00
62634;BME280;48704;50.534;6.442;2023-07-02T08:20:39;95103.91;;;15.41;100.00
62634;BME280;48704;50.534;6.442;2023-07-02T08:23:04;95111.53;;;15.46;100.00
62634;BME280;48704;50.534;6.442;2023-07-02T08:25:29;95116.84;;;15.49;100.00
62634;BME280;48704;50.534;6.442;2023-07-02T08:27:55;95123.84;;;15.31;100.00
62634;BME280;48704;50.534;6.442;2023-07-02T08:30:21;95117.13;;;15.10;100.00
62634;BME280;48704;50.534;6.442;2023-07-02T08:32:46;95124.34;;;15.35;100.00
62634;BME280;48704;50.534;6.442;2023-07-02T08:35:12;95125.53;;;15.51;100.00
62634;BME280;48704;50.534;6.442;2023-07-02T08:37:37;95116.56;;;15.58;100.00
62634;BME280;48704;50.534;6.442;2023-07-02T08:40:02;95123.31;;;15.74;100.00
62634;BME280;48704;50.534;6.442;2023-07-02T08:42:30;95121.72;;;16.09;100.00
62634;BME280;48704;50.534;6.442;2023-07-02T08:44:56;95128.81;;;15.91;100.00
62634;BME280;48704;50.534;6.442;2023-07-02T08:47:22;95136.34;;;16.01;100.00
62634;BME280;48704;50.534;6.442;2023-07-02T08:49:48;95135.75;;;15.84;100.00
62634;BME280;48704;50.534;6.442;2023-07-02T08:52:13;95139.44;;;15.68;100.00
62634;BME280;48704;50.534;6.442;2023-07-02T08:54:39;95143.25;;;15.70;100.00
62634;BME280;48704;50.534;6.442;2023-07-02T08:57:04;95145.41;;;15.53;100.00
62634;BME280;48704;50.534;6.442;2023-07-02T08:59:31;95152.00;;;15.61;100.00
62634;BME280;48704;50.534;6.442;2023-07-02T09:01:56;95147.63;;;15.66;100.00
62634;BME280;48704;50.534;6.442;2023-07-02T09:04:23;95150.91;;;15.70;100.00
62634;BME280;48704;50.534;6.442;2023-07-02T09:07:06;95148.59;;;16.04;100.00
62634;BME280;48704;50.534;6.442;2023-07-02T09:09:32;95159.03;;;15.79;100.00
62634;BME280;48704;50.534;6.442;2023-07-02T09:11:58;95151.94;;;15.31;100.00
62634;BME280;48704;50.534;6.442;2023-07-02T09:14:28;95144.94;;;15.08;100.00
62634;BME280;48704;50.534;6.442;2023-07-02T09:19:28;95161.81;;;14.97;100.00
62634;BME280;48704;50.534;6.442;2023-07-02T09:21:53;95158.03;;;15.35;100.00
62634;BME280;48704;50.534;6.442;2023-07-02T09:24:24;95157.63;;;15.20;100.00
62634;BME280;48704;50.534;6.442;2023-07-02T09:26:51;95161.78;;;15.49;100.00
62634;BME280;48704;50.534;6.442;2023-07-02T09:29:30;95160.72;;;15.93;100.00
62634;BME280;48704;50.534;6.442;2023-07-02T09:31:57;95166.34;;;15.58;100.00
62634;BME280;48704;50.534;6.442;2023-07-02T09:34:27;95165.16;;;15.36;100.00
62634;BME280;48704;50.534;6.442;2023-07-02T09:36:53;95173.53;;;15.01;100.00
62634;BME280;48704;50.534;6.442;2023-07-02T09:39:20;95170.97;;;15.03;100.00
62634;BME280;48704;50.534;6.442;2023-07-02T09:41:48;95166.69;;;14.85;100.00
62634;BME280;48704;50.534;6.442;2023-07-02T09:44:16;95171.75;;;15.45;100.00
62634;BME280;48704;50.534;6.442;2023-07-02T09:47:03;95173.16;;;15.68;100.00
62634;BME280;48704;50.534;6.442;2023-07-02T09:52:03;95174.47;;;16.27;100.00
62634;BME280;48704;50.534;6.442;2023-07-02T09:54:29;95169.88;;;16.24;100.00
62634;BME280;48704;50.534;6.442;2023-07-02T09:56:59;95166.97;;;16.59;100.00
62634;BME280;48704;50.534;6.442;2023-07-02T09:59:25;95173.53;;;16.92;100.00
62634;BME280;48704;50.534;6.442;2023-07-02T10:01:51;95178.03;;;17.00;100.00
62634;BME280;48704;50.534;6.442;2023-07-02T10:04:18;95169.38;;;16.50;100.00
62634;BME280;48704;50.534;6.442;2023-07-02T10:06:45;95173.19;;;16.28;100.00
62634;BME280;48704;50.534;6.442;2023-07-02T10:09:11;95178.09;;;16.22;100.00
62634;BME280;48704;50.534;6.442;2023-07-02T10:11:36;95172.78;;;16.13;100.00
62634;BME280;48704;50.534;6.442;2023-07-02T10:14:02;95179.34;;;15.96;100.00
62634;BME280;48704;50.534;6.442;2023-07-02T10:16:27;95189.56;;;15.94;100.00
62634;BME280;48704;50.534;6.442;2023-07-02T10:18:53;95183.00;;;16.16;100.00
62634;BME280;48704;50.534;6.442;2023-07-02T10:21:19;95178.19;;;16.35;100.00
62634;BME280;48704;50.534;6.442;2023-07-02T10:23:45;95178.19;;;16.65;100.00
62634;BME280;48704;50.534;6.442;2023-07-02T10:26:14;95172.47;;;16.95;100.00
62634;BME280;48704;50.534;6.442;2023-07-02T10:28:40;95176.09;;;16.90;100.00
62634;BME280;48704;50.534;6.442;2023-07-02T10:31:20;95184.78;;;16.92;100.00
62634;BME280;48704;50.534;6.442;2023-07-02T10:33:46;95181.13;;;16.97;100.00
62634;BME280;48704;50.534;6.442;2023-07-02T10:36:22;95172.69;;;16.97;100.00
62634;BME280;48704;50.534;6.442;2023-07-02T10:38:49;95172.03;;;17.66;100.00
62634;BME280;48704;50.534;6.442;2023-07-02T10:41:26;95166.25;;;17.77;98.62
62634;BME280;48704;50.534;6.442;2023-07-02T10:43:51;95167.06;;;16.97;99.07
62634;BME280;48704;50.534;6.442;2023-07-02T10:46:21;95162.59;;;16.10;100.00
62634;BME280;48704;50.534;6.442;2023-07-02T10:48:56;95159.66;;;15.96;100.00
62634;BME280;48704;50.534;6.442;2023-07-02T10:51:23;95165.44;;;15.74;100.00
62634;BME280;48704;50.534;6.442;2023-07-02T10:53:59;95170.09;;;15.66;100.00
62634;BME280;48704;50.534;6.442;2023-07-02T10:56:25;95165.44;;;15.74;100.00
62634;BME280;48704;50.534;6.442;2023-07-02T10:58:51;95168.81;;;15.97;100.00
62634;BME280;48704;50.534;6.442;2023-07-02T11:04:02;95165.75;;;18.37;87.37
62634;BME280;48704;50.534;6.442;2023-07-02T11:06:29;95160.78;;;19.09;79.07
62634;BME280;48704;50.534;6.442;2023-07-02T11:08:56;95167.75;;;18.82;78.88
62634;BME280;48704;50.534;6.442;2023-07-02T11:11:22;95160.69;;;18.75;87.28
62634;BME280;48704;50.534;6.442;2023-07-02T11:13:50;95156.13;;;18.72;81.01
62634;BME280;48704;50.534;6.442;2023-07-02T11:16:23;95173.03;;;18.00;84.42
62634;BME280;48704;50.534;6.442;2023-07-02T11:18:53;95163.03;;;17.11;79.85
62634;BME280;48704;50.534;6.442;2023-07-02T11:21:19;95178.88;;;16.71;83.65
62634;BME280;48704;50.534;6.442;2023-07-02T11:23:44;95180.56;;;16.80;83.59
62634;BME280;48704;50.534;6.442;2023-07-02T11:26:10;95172.28;;;16.68;86.96
62634;BME280;48704;50.534;6.442;2023-07-02T11:28:35;95184.81;;;16.67;82.69
62634;BME280;48704;50.534;6.442;2023-07-02T11:31:00;95172.00;;;17.10;82.61
62634;BME280;48704;50.534;6.442;2023-07-02T11:33:38;95171.75;;;17.83;81.42
62634;BME280;48704;50.534;6.442;2023-07-02T11:36:05;95171.72;;;17.13;80.08
62634;BME280;48704;50.534;6.442;2023-07-02T11:38:31;95175.31;;;16.70;81.86
62634;BME280;48704;50.534;6.442;2023-07-02T11:40:56;95178.44;;;16.67;82.42
62634;BME280;48704;50.534;6.442;2023-07-02T11:43:21;95186.38;;;16.63;83.08
62634;BME280;48704;50.534;6.442;2023-07-02T11:45:47;95179.03;;;16.54;87.25
62634;BME280;48704;50.534;6.442;2023-07-02T11:48:12;95184.31;;;16.88;86.73
62634;BME280;48704;50.534;6.442;2023-07-02T11:50:38;95190.50;;;17.05;84.03
62634;BME280;48704;50.534;6.442;2023-07-02T11:53:03;95196.31;;;17.31;83.81
62634;BME280;48704;50.534;6.442;2023-07-02T11:55:28;95191.03;;;17.60;83.68
62634;BME280;48704;50.534;6.442;2023-07-02T11:57:54;95190.13;;;16.95;82.70
62634;BME280;48704;50.534;6.442;2023-07-02T12:00:19;95184.13;;;18.12;79.14
62634;BME280;48704;50.534;6.442;2023-07-02T12:02:44;95185.13;;;18.73;75.74
62634;BME280;48704;50.534;6.442;2023-07-02T12:05:10;95184.84;;;18.57;73.78
62634;BME280;48704;50.534;6.442;2023-07-02T12:07:35;95190.28;;;18.42;74.50
62634;BME280;48704;50.534;6.442;2023-07-02T12:10:01;95177.72;;;18.56;72.39
62634;BME280;48704;50.534;6.442;2023-07-02T12:12:26;95183.38;;;19.69;69.13
62634;BME280;48704;50.534;6.442;2023-07-02T12:14:51;95187.09;;;18.19;70.60
62634;BME280;48704;50.534;6.442;2023-07-02T12:17:17;95192.53;;;17.98;73.71
62634;BME280;48704;50.534;6.442;2023-07-02T12:19:42;95192.94;;;17.52;77.04
62634;BME280;48704;50.534;6.442;2023-07-02T12:22:07;95201.56;;;17.22;81.94
62634;BME280;48704;50.534;6.442;2023-07-02T12:24:33;95205.97;;;17.36;82.79
62634;BME280;48704;50.534;6.442;2023-07-02T12:26:58;95199.75;;;17.81;79.10
62634;BME280;48704;50.534;6.442;2023-07-02T12:29:23;95196.03;;;18.50;78.00
62634;BME280;48704;50.534;6.442;2023-07-02T12:31:48;95199.00;;;19.23;71.63
62634;BME280;48704;50.534;6.442;2023-07-02T12:34:14;95200.72;;;17.83;73.89
62634;BME280;48704;50.534;6.442;2023-07-02T12:36:40;95193.63;;;17.58;72.64
62634;BME280;48704;50.534;6.442;2023-07-02T12:39:05;95195.00;;;17.51;71.15
62634;BME280;48704;50.534;6.442;2023-07-02T12:41:31;95194.28;;;17.69;72.42
62634;BME280;48704;50.534;6.442;2023-07-02T12:43:56;95191.47;;;18.47;67.37
62634;BME280;48704;50.534;6.442;2023-07-02T12:46:22;95191.97;;;19.03;68.24
62634;BME280;48704;50.534;6.442;2023-07-02T12:48:47;95186.94;;;19.83;65.29
62634;BME280;48704;50.534;6.442;2023-07-02T12:51:12;95191.09;;;18.24;70.59
62634;BME280;48704;50.534;6.442;2023-07-02T12:53:38;95200.53;;;17.94;71.56